Latest Weather Observations for Bairnsdale

IDV60801

Issued at 5:31 am EDT Friday 30 January 2015 (issued every 30 minutes, with the page automatically refreshed every 10 minutes)

About weather observations | Map of weather stations | Latest weather observations for VIC | Other Formats
Station Details ID: 085279 Name: BAIRNSDALE AIRPORT Lat: -37.88 Lon: 147.57 Height: 49.4 m
Data from the previous 72 hours. | See also: Recent months at Bairnsdale
Date/Time
EDT
Temp
°C
App
Temp
°C
Dew
Point
Rel
Hum
%
Delta-T
°C
Wind Press
QNH
hPa
Press
MSL
hPa
Rain
since 9 am
mm
Dir
 
Spd
km/h
Gust
km/h
Spd
kts
Gust
kts
30/05:30am 14.5 11.6 9.7 73 2.5 S 15 19 8 10 1014.4 1014.2 0.4
30/05:00am 13.7 11.6 9.6 76 2.1 SW 11 15 6 8 1014.4 1014.2 0.4
30/04:30am 14.0 11.5 9.6 75 2.3 SSW 13 17 7 9 1014.7 1014.5 0.4
30/04:00am 14.3 11.7 9.5 73 2.5 SSW 13 20 7 11 1014.9 1014.7 0.4
30/03:30am 14.7 11.0 9.5 71 2.7 S 19 24 10 13 1015.2 1015.0 0.4
30/03:00am 14.6 11.7 9.8 73 2.5 S 15 19 8 10 1015.6 1015.4 0.4
30/02:30am 14.4 10.8 10.0 75 2.3 S 19 26 10 14 1015.9 1015.8 0.4
30/02:00am 14.3 10.9 10.5 78 2.0 S 19 24 10 13 1016.0 1015.9 0.4
30/01:30am 13.9 10.5 10.7 81 1.7 SSW 19 32 10 17 1016.2 1016.1 0.4
30/01:00am 14.3 11.7 9.3 72 2.6 SSW 13 19 7 10 1016.5 1016.4 0.2
30/12:30am 14.6 12.2 10.2 75 2.3 S 13 17 7 9 1016.8 1016.7 0.2
30/12:00am 15.1 12.0 10.3 73 2.5 S 17 24 9 13 1017.1 1017.0 0.2
 
Date/Time
EDT
Temp
°C
App
Temp
°C
Dew
Point
Rel
Hum
%
Delta-T
°C
Wind Press
QNH
hPa
Press
MSL
hPa
Rain
since 9 am
mm
Dir
 
Spd
km/h
Gust
km/h
Spd
kts
Gust
kts
29/11:30pm 15.2 12.3 9.6 69 2.9 SSE 15 19 8 10 1017.4 1017.3 0.2
29/11:00pm 15.0 12.2 10.0 72 2.6 S 15 20 8 11 1017.8 1017.7 0.2
29/10:30pm 14.9 12.0 9.7 71 2.7 S 15 20 8 11 1018.0 1017.9 0.2
29/10:00pm 15.5 12.0 10.1 70 2.8 S 19 28 10 15 1018.1 1018.0 0.2
29/09:30pm 15.7 11.8 9.6 67 3.2 SSE 20 28 11 15 1018.1 1018.0 0.2
29/09:00pm 16.1 12.3 9.8 66 3.3 SSE 20 26 11 14 1017.9 1017.8 0.2
29/08:30pm 16.0 11.7 9.4 65 3.4 SSE 22 32 12 17 1017.8 1017.7 0.2
29/08:00pm 16.4 12.0 10.3 67 3.2 SSE 24 33 13 18 1017.7 1017.6 0.2
29/07:30pm 17.0 11.3 9.9 63 3.7 SSE 30 39 16 21 1017.5 1017.4 0.2
29/07:00pm 17.2 11.8 9.6 61 4.0 SSE 28 41 15 22 1017.4 1017.3 0.2
29/06:42pm 17.5 11.4 9.9 61 4.0 S 32 50 17 27 1017.4 1017.3 0.2
29/06:30pm 18.0 12.0 10.1 60 4.2 SSE 32 43 17 23 1017.3 1017.2 0.2
29/06:00pm 18.3 12.2 9.9 58 4.5 SSE 32 43 17 23 1017.3 1017.2 0.2
29/05:30pm 18.4 12.0 9.2 55 4.8 SSE 33 43 18 23 1017.4 1017.3 0.2
29/05:00pm 18.6 14.9 12.6 68 3.4 SSE 24 33 13 18 1017.7 1017.6 0.2
29/04:30pm 17.4 11.4 10.8 65 3.5 SSE 33 41 18 22 1017.6 1017.5 0.2
29/04:00pm 17.9 12.2 11.7 67 3.4 SSE 33 44 18 24 1017.7 1017.6 0.2
29/03:30pm 19.7 14.8 10.1 54 5.2 SSE 26 41 14 22 1017.7 1017.6 0.2
29/03:00pm 19.3 13.6 11.3 60 4.4 SE 32 43 17 23 1018.0 1017.9 0.2
29/02:30pm 17.6 11.2 9.5 59 4.3 SSE 33 44 18 24 1018.1 1018.0 0.2
29/02:00pm 18.9 13.3 11.5 62 4.1 SSE 32 41 17 22 1018.1 1018.0 0.2
29/01:30pm 18.3 12.9 10.9 62 4.0 S 30 43 16 23 1018.3 1018.2 0.2
29/01:00pm 16.2 11.0 12.7 80 1.9 S 32 44 17 24 1018.6 1018.5 0.2
29/12:30pm 18.8 13.8 11.1 61 4.2 S 28 39 15 21 1018.7 1018.6 0.0
29/12:00pm 19.0 14.2 11.8 63 4.0 S 28 39 15 21 1018.7 1018.6 0.0
29/11:30am 18.9 13.6 11.2 61 4.2 S 30 39 16 21 1019.0 1018.9 0.0
29/11:00am 17.6 12.3 11.2 66 3.5 S 30 39 16 21 1019.1 1019.0 0.0
29/10:30am 17.2 11.8 11.0 67 3.3 S 30 43 16 23 1019.1 1019.0 0.0
29/10:00am 17.4 12.7 10.5 64 3.7 SSE 26 39 14 21 1019.1 1019.0 0.0
29/09:30am 16.9 12.4 11.4 70 3.0 S 26 33 14 18 1019.2 1019.1 0.0
29/09:00am 17.0 12.2 11.5 70 3.0 SSW 28 35 15 19 1019.2 1019.1 2.8
29/08:30am 16.0 11.6 10.5 70 2.9 S 24 30 13 16 1019.1 1019.0 2.8
29/08:00am 16.0 12.0 10.3 69 3.0 SSE 22 32 12 17 1018.9 1018.8 2.8
29/07:30am 15.4 12.1 10.8 74 2.4 S 19 24 10 13 1018.9 1018.8 2.8
29/07:00am 14.3 11.1 9.9 75 2.3 S 17 20 9 11 1018.7 1018.6 2.8
29/06:30am 13.7 11.3 9.9 78 2.0 S 13 19 7 10 1018.5 1018.4 2.8
29/06:00am 14.0 11.6 10.2 78 2.0 S 13 19 7 10 1018.4 1018.3 2.8
29/05:30am 14.1 11.5 10.7 80 1.8 SSE 15 20 8 11 1018.2 1018.1 2.8
29/05:00am 14.0 11.2 11.2 83 1.5 S 17 22 9 12 1018.1 1018.0 2.8
29/04:30am 12.9 11.0 10.4 85 1.3 SSE 11 13 6 7 1018.2 1018.1 2.8
29/04:00am 13.3 11.2 11.2 87 1.1 SSE 13 19 7 10 1018.3 1018.2 2.8
29/03:30am 12.4 11.2 11.6 95 0.4 SSW 9 20 5 11 1018.4 1018.3 2.8
29/03:00am 11.2 8.8 10.1 93 0.6 WSW 13 15 7 8 1018.7 1018.6 2.8
29/02:30am 11.3 9.6 9.7 90 0.8 WSW 9 11 5 6 1018.8 1018.7 2.8
29/02:00am 11.9 10.2 10.0 88 1.0 NE 9 13 5 7 1019.1 1019.0 2.8
29/01:30am 12.7 8.3 10.4 86 1.2 ESE 24 32 13 17 1019.8 1019.7 1.2
29/01:00am 13.9 12.5 10.9 82 1.6 SSE 9 13 5 7 1019.7 1019.6 0.8
29/12:30am 13.9 10.4 10.9 82 1.6 SSE 20 28 11 15 1019.9 1019.8 0.8
29/12:00am 13.9 11.3 10.7 81 1.7 SSE 15 19 8 10 1020.0 1019.9 0.6
 
Date/Time
EDT
Temp
°C
App
Temp
°C
Dew
Point
Rel
Hum
%
Delta-T
°C
Wind Press
QNH
hPa
Press
MSL
hPa
Rain
since 9 am
mm
Dir
 
Spd
km/h
Gust
km/h
Spd
kts
Gust
kts
28/11:30pm 13.9 11.6 9.1 73 2.4 SSE 11 15 6 8 1020.2 1020.1 0.0
28/11:00pm 14.3 11.3 9.1 71 2.6 SSE 15 17 8 9 1020.4 1020.3 0.0
28/10:30pm 14.9 11.6 9.5 70 2.8 SE 17 22 9 12 1020.6 1020.5 0.0
28/10:00pm 15.7 12.5 10.0 69 3.0 SE 17 24 9 13 1020.6 1020.5 0.0
28/09:30pm 15.1 12.4 9.0 67 3.1 SSE 13 17 7 9 1020.4 1020.3 0.0
28/09:00pm 15.0 11.8 8.5 65 3.3 SSE 15 19 8 10 1020.3 1020.2 0.0
28/08:30pm 16.2 12.2 8.9 62 3.8 SSE 20 26 11 14 1020.1 1020.0 0.0
28/08:00pm 16.8 12.7 8.8 59 4.1 SE 20 28 11 15 1020.0 1019.9 0.0
28/07:30pm 17.3 13.0 9.2 59 4.2 SSE 22 32 12 17 1019.9 1019.8 0.0
28/07:00pm 18.2 13.5 9.3 56 4.7 SE 24 32 13 17 1019.7 1019.6 0.0
28/06:30pm 19.0 13.7 10.0 56 4.8 SE 28 33 15 18 1019.4 1019.3 0.0
28/06:00pm 18.6 13.2 9.4 55 4.8 SE 28 35 15 19 1019.3 1019.2 0.0
28/05:30pm 19.4 14.2 10.1 55 5.0 SE 28 37 15 20 1019.1 1019.0 0.0
28/05:00pm 20.5 14.6 10.6 53 5.4 SE 32 37 17 20 1019.1 1019.0 0.0
28/04:30pm 18.8 12.8 10.1 57 4.7 SE 32 37 17 20 1019.1 1019.0 0.0
28/04:00pm 19.4 13.6 9.6 53 5.2 SE 30 37 16 20 1019.3 1019.2 0.0
28/03:30pm 20.9 15.4 10.7 52 5.6 SE 30 41 16 22 1019.3 1019.2 0.0
28/03:00pm 20.0 14.0 10.1 53 5.3 SE 32 44 17 24 1019.2 1019.1 0.0
28/02:30pm 20.2 14.3 11.1 56 5.0 SE 33 43 18 23 1019.2 1019.1 0.0
28/02:00pm 20.4 14.5 11.1 55 5.1 SE 33 44 18 24 1019.1 1019.0 0.0
28/01:30pm 18.7 12.8 11.0 61 4.2 SE 33 46 18 25 1019.1 1019.0 0.0
28/01:00pm 20.6 15.1 11.8 57 4.9 ESE 32 43 17 23 1019.1 1019.0 0.0
28/12:30pm 20.4 15.6 12.9 62 4.3 SE 30 43 16 23 1019.0 1018.9 0.0
28/12:00pm 18.9 14.3 12.4 66 3.6 SE 28 33 15 18 1019.1 1019.0 0.0
28/11:30am 18.7 15.5 11.3 62 4.0 ESE 19 30 10 16 1019.1 1019.0 0.0
28/11:00am 18.2 14.0 11.0 63 3.9 SE 24 33 13 18 1019.2 1019.1 0.0
28/10:30am 19.3 15.6 10.3 56 4.8 SE 20 28 11 15 1019.2 1019.1 0.0
28/10:00am 18.4 14.7 10.0 58 4.5 SE 20 28 11 15 1019.1 1019.0 0.0
28/09:30am 18.1 14.9 11.2 64 3.8 SE 19 26 10 14 1018.9 1018.8 0.0
28/09:00am 17.8 14.5 11.6 67 3.4 SE 20 24 11 13 1018.8 1018.7 0.0
28/08:30am 16.1 15.2 12.7 80 1.9 WNW 9 15 5 8 1018.7 1018.6 0.0
28/08:00am 15.2 14.9 13.2 88 1.1 NW 7 11 4 6 1018.4 1018.3 0.0
28/07:30am 14.4 13.7 13.3 93 0.6 NW 9 13 5 7 1018.3 1018.2 0.0
28/07:00am 13.9 13.2 13.1 95 0.4 WNW 9 13 5 7 1018.1 1018.0 0.0
28/06:30am 13.7 12.9 12.9 95 0.4 NW 9 11 5 6 1017.8 1017.7 0.0
28/06:00am 13.6 12.8 12.8 95 0.4 WNW 9 13 5 7 1017.6 1017.5 0.0
28/05:30am 13.6 12.4 12.7 94 0.5 NNW 11 15 6 8 1017.4 1017.3 0.0
28/05:00am 13.8 12.9 12.5 92 0.7 NNW 9 11 5 6 1017.2 1017.1 0.0
28/04:30am 14.0 13.0 12.4 90 0.9 NNW 9 11 5 6 1017.1 1017.0 0.0
28/04:00am 14.1 13.6 12.1 88 1.1 WNW 6 9 3 5 1017.0 1016.9 0.0
28/03:30am 14.1 13.4 12.0 87 1.1 NW 7 11 4 6 1017.1 1017.0 0.0
28/03:00am 14.4 13.7 11.9 85 1.3 NW 7 9 4 5 1017.2 1017.1 0.0
28/02:30am 14.8 14.1 11.4 80 1.8 NE 6 11 3 6 1017.4 1017.3 0.0
28/02:00am 15.6 14.7 11.4 76 2.3 SSE 7 11 4 6 1017.5 1017.4 0.0
28/01:30am 15.8 14.9 11.2 74 2.5 SSE 7 11 4 6 1017.7 1017.6 0.0
28/01:00am 15.9 15.0 11.3 74 2.5 SSE 7 9 4 5 1017.7 1017.6 0.0
28/12:30am 15.8 15.0 11.6 76 2.3 S 7 9 4 5 1017.8 1017.7 0.0
28/12:00am 15.1 14.2 11.3 78 2.0 SSW 7 9 4 5 1018.0 1017.9 0.0
 
Date/Time
EDT
Temp
°C
App
Temp
°C
Dew
Point
Rel
Hum
%
Delta-T
°C
Wind Press
QNH
hPa
Press
MSL
hPa
Rain
since 9 am
mm
Dir
 
Spd
km/h
Gust
km/h
Spd
kts
Gust
kts
27/11:30pm 14.8 13.9 11.2 79 1.9 WSW 7 7 4 4 1017.9 1017.8 0.0
27/11:00pm 14.8 13.9 11.2 79 1.9 SW 7 7 4 4 1017.8 1017.7 0.0
27/10:30pm 14.9 14.0 10.7 76 2.2 SSW 6 7 3 4 1018.0 1017.9 0.0
27/10:00pm 15.5 14.4 10.1 70 2.8 S 6 7 3 4 1018.0 1017.9 0.0
27/09:30pm 15.9 14.6 9.8 67 3.2 SSE 7 9 4 5 1017.7 1017.6 0.0
27/09:00pm 16.1 14.3 9.5 65 3.4 SSE 9 13 5 7 1017.5 1017.4 0.0
27/08:30pm 16.2 14.0 9.4 64 3.5 S 11 13 6 7 1017.4 1017.3 0.0
27/08:00pm 16.4 14.1 9.1 62 3.8 SSE 11 15 6 8 1017.2 1017.1 0.0
27/07:30pm 16.8 14.2 9.2 61 3.9 SSE 13 17 7 9 1017.0 1016.9 0.0
27/07:00pm 16.8 14.1 9.0 60 4.0 SSE 13 19 7 10 1016.8 1016.7 0.0
27/06:30pm 16.9 14.2 8.8 59 4.2 SSE 13 20 7 11 1016.6 1016.5 0.0
27/06:00pm 17.0 14.4 9.2 60 4.1 SSE 13 20 7 11 1016.5 1016.4 0.0
27/05:30pm 16.9 13.9 9.1 60 4.0 SE 15 20 8 11 1016.7 1016.6 0.0
27/05:00pm 16.8 13.8 9.2 61 3.9 SSE 15 19 8 10 1016.7 1016.6 0.0
27/04:30pm 17.0 13.6 9.2 60 4.1 S 17 20 9 11 1016.7 1016.6 0.0
27/04:00pm 16.9 13.5 9.3 61 4.0 SE 17 22 9 12 1016.8 1016.7 0.0
27/03:30pm 17.2 13.9 9.6 61 4.0 S 17 20 9 11 1016.7 1016.6 0.0
27/03:00pm 16.9 13.2 9.3 61 4.0 SSE 19 28 10 15 1016.7 1016.6 0.0
27/02:30pm 17.2 13.9 9.4 60 4.1 SSE 17 22 9 12 1016.7 1016.6 0.0
27/02:00pm 17.0 13.0 9.2 60 4.1 SSE 20 28 11 15 1016.7 1016.6 0.0
27/01:30pm 16.9 13.0 9.3 61 4.0 S 20 30 11 16 1016.8 1016.7 0.0
27/01:00pm 17.2 13.0 9.6 61 4.0 SSE 22 30 12 16 1017.0 1016.9 0.0
27/12:30pm 18.1 14.4 10.0 59 4.3 SSE 20 28 11 15 1017.0 1016.9 0.0
27/12:00pm 18.1 14.4 10.0 59 4.3 SSE 20 28 11 15 1016.9 1016.8 0.0
27/11:30am 18.2 14.1 10.1 59 4.3 SSE 22 30 12 16 1017.0 1016.9 0.0
27/11:00am 17.5 13.9 9.7 60 4.1 SSE 19 26 10 14 1017.0 1016.9 0.0
27/10:30am 17.1 13.5 9.8 62 3.8 SSE 19 24 10 13 1017.0 1016.9 0.0
27/10:00am 16.8 13.6 10.0 64 3.6 SSE 17 20 9 11 1017.0 1016.9 0.0
27/09:30am 16.7 13.9 9.9 64 3.6 SE 15 20 8 11 1016.9 1016.8 0.0
27/09:00am 16.7 13.0 9.6 63 3.7 SSE 19 26 10 14 1016.8 1016.7 0.0
27/08:30am 17.1 13.9 10.0 63 3.8 SSE 17 22 9 12 1016.7 1016.6 0.0
27/08:00am 16.7 14.3 10.1 65 3.5 SSE 13 17 7 9 1016.5 1016.4 0.0
27/07:30am 15.7 14.2 10.7 72 2.7 S 9 11 5 6 1016.3 1016.2 0.0
27/07:00am 14.8 13.9 11.4 80 1.8 SSW 7 9 4 5 1016.1 1016.0 0.0
27/06:30am 14.4 14.7 11.0 80 1.8 CALM 0 0 0 0 1016.1 1016.0 0.0
27/06:00am 14.7 14.5 10.5 76 2.2 SSE 2 6 1 3 1015.9 1015.8 0.0

Other Formats:

Comma delimited format used in spreadsheet applications
http://www.bom.gov.au/fwo/IDV60801/IDV60801.94912.axf

JavaScript Object Notation format (JSON) in row-major order
http://www.bom.gov.au/fwo/IDV60801/IDV60801.94912.json